Weather at Jordan Hospital Helipad

Public forecast

Using degrees Celsius for public forecast. Weather courtesy of forecast.io.

Closest aviation weather report (METAR) to Jordan Hospital Helipad

Closest report is Amman Civil (Marka International) Airport, 4.8 nm (8.9 km) E.

2022/12/04 04:00 (retrieved 17 minutes ago)

OJAM 040400Z 00000KT 5000 HZ NSC 09/05 Q1021 NOSIG

Closest aviation forecast (TAF) to Jordan Hospital Helipad

Forecast is more than 12 hours old.

Closest forecast is Rosh Pina Airport, 63.4 nm (117.5 km) NNW.

2022/12/03 12:36 Ammendment (retrieved 16 hours ago)

TAF AMD LLIB 031634Z 0312/0412 CNL